Time;durP1;ratioP1;P1;durP2;ratioP2;P2;SDS_P1;SDS_P2;PMS_P1;PMS_P2;Temp;Humidity;BMP_temperature;BMP_pressure;BME280_temperature;BME280_humidity;BME280_pressure;Samples;Min_cycle;Max_cycle;Signal;HPM_P1;HPM_P2
2022/03/20 00:00:32;;;;;;;;;;;5.70;99.90;;;;;;5008603;28;20745;-56
2022/03/20 00:02:58;;;;;;;8.40;4.47;;;5.70;99.90;;;;;;4992477;28;19965;-56
2022/03/20 00:05:23;;;;;;;8.80;4.87;;;5.70;99.90;;;;;;4994830;28;20145;-53
2022/03/20 00:07:49;;;;;;;8.50;4.97;;;5.70;99.90;;;;;;5001149;28;20076;-54
2022/03/20 00:10:15;;;;;;;9.00;4.57;;;5.70;99.90;;;;;;5010869;28;20038;-55
2022/03/20 00:12:42;;;;;;;7.88;4.85;;;5.70;99.90;;;;;;5010969;28;20523;-57
2022/03/20 00:15:08;;;;;;;9.13;4.57;;;5.60;99.90;;;;;;5009862;28;20041;-53
2022/03/20 00:17:34;;;;;;;6.68;4.22;;;5.60;99.90;;;;;;5000201;28;20077;-56
2022/03/20 00:20:00;;;;;;;6.68;4.68;;;5.60;99.90;;;;;;5008206;28;20049;-56
2022/03/20 00:22:26;;;;;;;7.50;4.43;;;5.60;99.90;;;;;;5009676;28;20046;-53
2022/03/20 00:24:52;;;;;;;8.55;4.60;;;5.60;99.90;;;;;;5003661;28;20038;-55
2022/03/20 00:27:18;;;;;;;10.93;4.87;;;5.60;99.90;;;;;;4991834;28;20057;-55
2022/03/20 00:29:44;;;;;;;11.02;3.72;;;5.60;99.90;;;;;;4991259;28;20038;-56
2022/03/20 00:32:12;;;;;;;6.90;4.53;;;5.50;99.90;;;;;;4997016;28;20045;-56
2022/03/20 00:34:38;;;;;;;8.20;4.43;;;5.50;99.90;;;;;;5004532;28;20121;-52
2022/03/20 00:37:06;;;;;;;7.93;3.58;;;5.50;99.90;;;;;;4993251;28;20045;-56
2022/03/20 00:39:31;;;;;;;13.55;5.13;;;5.50;99.90;;;;;;4992487;28;20035;-56
2022/03/20 00:41:57;;;;;;;11.30;5.55;;;5.50;99.90;;;;;;4996536;28;20565;-57
2022/03/20 00:44:23;;;;;;;6.70;4.53;;;5.40;99.90;;;;;;5010867;28;20042;-56
2022/03/20 00:46:48;;;;;;;11.30;4.87;;;5.40;99.90;;;;;;5007350;28;20292;-57
2022/03/20 00:49:15;;;;;;;6.90;4.20;;;5.40;99.90;;;;;;4990892;28;20403;-53
2022/03/20 00:51:42;;;;;;;9.35;4.75;;;5.40;99.90;;;;;;5008209;28;20045;-55
2022/03/20 00:54:08;;;;;;;6.13;4.50;;;5.40;99.90;;;;;;5007145;28;20094;-56
2022/03/20 00:56:33;;;;;;;7.95;4.95;;;5.40;99.90;;;;;;5006988;28;20066;-55
2022/03/20 00:58:59;;;;;;;13.00;5.93;;;5.30;99.90;;;;;;5008394;28;20034;-56
2022/03/20 01:01:28;;;;;;;8.63;4.80;;;5.30;99.90;;;;;;5008553;28;20045;-54
2022/03/20 01:03:54;;;;;;;7.88;5.22;;;5.30;99.90;;;;;;5006294;28;20046;-56
2022/03/20 01:06:21;;;;;;;11.25;5.78;;;5.30;99.90;;;;;;5008320;28;20112;-55
2022/03/20 01:08:46;;;;;;;11.77;6.47;;;5.30;99.90;;;;;;5008365;28;20034;-56
2022/03/20 01:11:12;;;;;;;9.60;5.17;;;5.30;99.90;;;;;;4997338;28;20041;-55
2022/03/20 01:13:38;;;;;;;10.90;6.70;;;5.30;99.90;;;;;;4989418;28;20475;-56
2022/03/20 01:16:04;;;;;;;11.70;6.73;;;5.20;99.90;;;;;;5000086;28;20045;-55
2022/03/20 01:18:29;;;;;;;12.77;6.50;;;5.20;99.90;;;;;;5003725;28;20121;-57
2022/03/20 01:20:55;;;;;;;12.40;6.43;;;5.20;99.90;;;;;;5010145;28;20531;-55
2022/03/20 01:23:21;;;;;;;9.17;5.60;;;5.20;99.90;;;;;;5008287;28;20069;-57
2022/03/20 01:25:51;;;;;;;10.93;6.68;;;5.20;99.90;;;;;;5008078;28;20380;-55
2022/03/20 01:28:18;;;;;;;10.32;6.60;;;5.20;99.90;;;;;;5010527;28;20104;-55
2022/03/20 01:30:44;;;;;;;10.43;7.10;;;5.20;99.90;;;;;;5007870;28;20479;-56
2022/03/20 01:33:11;;;;;;;14.15;7.13;;;5.10;99.90;;;;;;5010344;28;20096;-56
2022/03/20 01:35:36;;;;;;;14.18;7.40;;;5.10;99.90;;;;;;4998799;28;20041;-55
2022/03/20 01:38:03;;;;;;;11.50;7.27;;;5.10;99.90;;;;;;4995310;28;20042;-56
2022/03/20 01:40:30;;;;;;;17.52;8.35;;;5.10;99.90;;;;;;5002734;28;20487;-56
2022/03/20 01:42:56;;;;;;;11.73;6.80;;;5.10;99.90;;;;;;5004143;28;20117;-57
2022/03/20 01:45:23;;;;;;;19.07;8.13;;;5.10;99.90;;;;;;4994849;28;20301;-56
2022/03/20 01:47:50;;;;;;;15.30;7.78;;;5.10;99.90;;;;;;4995202;28;20046;-55
2022/03/20 01:50:16;;;;;;;;;;;5.00;99.90;;;;;;4997125;28;20172;-55
2022/03/20 01:52:45;;;;;;;10.82;8.07;;;5.00;99.90;;;;;;5013593;28;19976;-57
2022/03/20 01:55:11;;;;;;;15.82;8.43;;;5.00;99.90;;;;;;5009892;28;20499;-56
2022/03/20 01:57:39;;;;;;;14.38;8.20;;;5.00;99.90;;;;;;4998530;28;20593;-56
2022/03/20 02:00:09;;;;;;;18.17;9.82;;;5.00;99.90;;;;;;5013574;28;20042;-56
2022/03/20 02:02:35;;;;;;;16.40;9.10;;;4.90;99.90;;;;;;5006885;28;20510;-57
2022/03/20 02:05:02;;;;;;;16.75;8.95;;;4.90;99.90;;;;;;4994663;28;20097;-57
2022/03/20 02:07:28;;;;;;;;;;;4.90;99.90;;;;;;4995648;28;20492;-56
2022/03/20 02:09:53;;;;;;;14.40;8.52;;;4.90;99.90;;;;;;5013236;28;19924;-56
2022/03/20 02:12:19;;;;;;;17.33;8.27;;;4.90;99.90;;;;;;5006999;28;20125;-56
2022/03/20 02:14:45;;;;;;;16.95;9.77;;;4.80;99.90;;;;;;4993569;28;20125;-56
2022/03/20 02:17:11;;;;;;;17.70;9.63;;;4.80;99.90;;;;;;5002649;28;20137;-55
2022/03/20 02:19:40;;;;;;;17.20;9.93;;;4.80;99.90;;;;;;4995018;28;20046;-57
2022/03/20 02:22:06;;;;;;;17.92;9.65;;;4.80;99.90;;;;;;5008953;28;20046;-55
2022/03/20 02:24:40;;;;;;;18.77;10.07;;;4.70;99.90;;;;;;4993648;28;20467;-57
2022/03/20 02:27:14;;;;;;;15.95;9.93;;;4.70;99.90;;;;;;4994276;28;20297;-54
2022/03/20 02:29:41;;;;;;;13.38;9.32;;;4.70;99.90;;;;;;5007383;28;20056;-54
2022/03/20 02:32:08;;;;;;;;;;;4.70;99.90;;;;;;5011974;28;20085;-56
2022/03/20 02:34:34;;;;;;;13.85;9.32;;;4.70;99.90;;;;;;5012220;28;19993;-56
2022/03/20 02:37:03;;;;;;;18.15;9.40;;;4.70;99.90;;;;;;5010838;28;20045;-55
2022/03/20 02:39:29;;;;;;;19.70;10.55;;;4.70;99.90;;;;;;4993695;28;20439;-56
2022/03/20 02:41:56;;;;;;;18.30;9.95;;;4.60;99.90;;;;;;4993384;28;20038;-56
2022/03/20 02:44:50;;;;;;;19.40;10.77;;;4.60;99.90;;;;;;4993441;28;20057;-55
2022/03/20 02:47:23;;;;;;;15.85;9.25;;;4.60;99.90;;;;;;5003131;28;20384;-56
2022/03/20 02:49:55;;;;;;;16.10;9.40;;;4.60;99.90;;;;;;5012109;28;20049;-56
2022/03/20 02:52:28;;;;;;;16.90;10.02;;;4.50;99.90;;;;;;5012567;28;20077;-56
2022/03/20 02:54:54;;;;;;;16.05;9.73;;;4.50;99.90;;;;;;4996158;28;20069;-55
2022/03/20 02:57:20;;;;;;;15.30;10.27;;;4.50;99.90;;;;;;4992866;28;20050;-56
2022/03/20 02:59:46;;;;;;;17.37;12.03;;;4.40;99.90;;;;;;5003993;28;20479;-55
2022/03/20 03:02:13;;;;;;;10.60;8.95;;;4.40;99.90;;;;;;5012143;28;20042;-56
2022/03/20 03:04:40;;;;;;;17.45;10.50;;;4.40;99.90;;;;;;5000295;28;20061;-55
2022/03/20 03:07:07;;;;;;;18.30;10.30;;;4.40;99.90;;;;;;4992650;28;20151;-56
2022/03/20 03:12:17;;;;;;;19.27;11.02;;;4.30;99.90;;;;;;5012071;28;20050;-56
2022/03/20 03:17:30;;;;;;;21.50;11.13;;;4.20;99.90;;;;;;4992469;28;20533;-55
2022/03/20 03:19:56;;;;;;;15.85;10.00;;;4.20;99.90;;;;;;5004477;28;20034;-56
2022/03/20 03:22:26;;;;;;;18.08;10.00;;;4.20;99.90;;;;;;4992363;28;20491;-56
2022/03/20 03:24:53;;;;;;;16.42;10.88;;;4.10;99.90;;;;;;4992693;28;20038;-55
2022/03/20 03:27:19;;;;;;;16.77;11.07;;;4.10;99.90;;;;;;4993046;28;20073;-56
2022/03/20 03:29:44;;;;;;;21.60;11.43;;;4.10;99.90;;;;;;4993788;28;20054;-54
2022/03/20 03:32:10;;;;;;;20.27;11.67;;;4.10;99.90;;;;;;5007517;28;20038;-56
2022/03/20 03:37:22;;;;;;;16.45;11.43;;;4.00;99.90;;;;;;4993359;28;20121;-55
2022/03/20 03:39:47;;;;;;;18.65;12.25;;;4.00;99.90;;;;;;5001769;28;20091;-55
2022/03/20 03:42:14;;;;;;;18.40;11.87;;;4.00;99.90;;;;;;5010334;28;20045;-56
2022/03/20 03:44:39;;;;;;;16.00;11.50;;;4.00;99.90;;;;;;5011076;28;20069;-56
2022/03/20 03:47:06;;;;;;;22.25;11.55;;;4.00;99.90;;;;;;5007174;28;20073;-55
2022/03/20 03:49:33;;;;;;;23.52;13.07;;;3.90;99.90;;;;;;4997831;28;20049;-55
2022/03/20 03:52:00;;;;;;;22.63;13.38;;;3.90;99.90;;;;;;5005398;28;20419;-54
2022/03/20 03:54:26;;;;;;;21.67;12.15;;;3.90;99.90;;;;;;5011643;28;20050;-55
2022/03/20 03:56:51;;;;;;;22.57;12.77;;;3.90;99.90;;;;;;5001328;28;20384;-56
2022/03/20 03:59:17;;;;;;;19.00;12.30;;;3.90;99.90;;;;;;4993011;28;20139;-55
2022/03/20 04:01:43;;;;;;;17.37;12.13;;;3.90;99.90;;;;;;4992213;28;20049;-55
2022/03/20 04:04:09;;;;;;;20.17;13.18;;;3.90;99.90;;;;;;4990568;28;20365;-56
2022/03/20 04:06:34;;;;;;;23.93;12.37;;;3.90;99.90;;;;;;5010811;28;20140;-56
2022/03/20 04:09:00;;;;;;;24.83;12.77;;;3.90;99.90;;;;;;4998341;28;20515;-55
2022/03/20 04:11:26;;;;;;;16.73;13.10;;;3.80;99.90;;;;;;5009070;28;20410;-55
2022/03/20 04:13:52;;;;;;;21.77;13.18;;;3.80;99.90;;;;;;5009565;28;20042;-55
2022/03/20 04:16:18;;;;;;;21.98;14.05;;;3.80;99.90;;;;;;5010277;28;20037;-54
2022/03/20 04:18:44;;;;;;;20.08;13.40;;;3.80;99.90;;;;;;5009306;28;20042;-56
2022/03/20 04:21:10;;;;;;;24.73;14.10;;;3.80;99.90;;;;;;4996410;28;20038;-54
2022/03/20 04:23:49;;;;;;;23.05;12.63;;;3.80;99.90;;;;;;4992149;28;20114;-55
2022/03/20 04:26:24;;;;;;;17.65;12.20;;;3.80;99.90;;;;;;4991392;28;20241;-56
2022/03/20 04:28:51;;;;;;;17.85;12.32;;;3.80;99.90;;;;;;4991088;28;20038;-54
2022/03/20 04:31:19;;;;;;;21.52;13.48;;;3.70;99.90;;;;;;5009022;28;20099;-58
2022/03/20 04:33:47;;;;;;;26.25;13.05;;;3.70;99.90;;;;;;5001518;28;20038;-55
2022/03/20 04:36:13;;;;;;;20.02;14.00;;;3.70;99.90;;;;;;4991463;28;20096;-57
2022/03/20 04:38:39;;;;;;;22.65;14.50;;;3.70;99.90;;;;;;4994515;28;20046;-57
2022/03/20 04:41:05;;;;;;;23.05;14.50;;;3.60;99.90;;;;;;4998262;28;20042;-55
2022/03/20 04:43:31;;;;;;;26.73;15.35;;;3.60;99.90;;;;;;4997904;28;20045;-55
2022/03/20 04:45:57;;;;;;;20.17;13.88;;;3.70;99.90;;;;;;5005332;28;20062;-55
2022/03/20 04:59:20;;;;;;;22.08;16.10;;;3.60;99.20;;;;;;4991118;28;20050;-56
2022/03/20 05:01:46;;;;;;;27.40;15.30;;;3.60;99.10;;;;;;4997705;28;20042;-56
2022/03/20 05:04:13;;;;;;;25.35;15.00;;;3.60;99.00;;;;;;5004520;28;20069;-54
2022/03/20 05:06:39;;;;;;;25.40;15.50;;;3.60;98.80;;;;;;5007528;28;20049;-54
2022/03/20 05:14:34;;;;;;;19.38;14.60;;;3.50;98.50;;;;;;5010304;28;20042;-57
2022/03/20 05:17:00;;;;;;;23.17;14.63;;;3.50;98.50;;;;;;4997273;28;20121;-57
2022/03/20 05:19:26;;;;;;;;;;;3.50;98.40;;;;;;4991101;28;20061;-57
2022/03/20 05:21:51;;;;;;;21.17;14.70;;;3.50;98.30;;;;;;4990365;28;20302;-58
2022/03/20 05:24:17;;;;;;;29.03;16.73;;;3.40;98.30;;;;;;4990568;28;20129;-58
2022/03/20 05:26:43;;;;;;;26.73;15.90;;;3.50;98.30;;;;;;4992684;28;20037;-57
2022/03/20 05:29:08;;;;;;;25.77;16.10;;;3.40;98.20;;;;;;4990728;28;20074;-57
2022/03/20 05:31:34;;;;;;;20.63;14.60;;;3.40;98.20;;;;;;4993280;28;20571;-57
2022/03/20 05:34:01;;;;;;;21.67;16.70;;;3.40;98.00;;;;;;5009915;28;20060;-59
2022/03/20 05:36:29;;;;;;;28.52;16.23;;;3.40;98.10;;;;;;5008931;28;20088;-58
2022/03/20 05:38:56;;;;;;;26.20;15.93;;;3.30;98.10;;;;;;4991434;28;20504;-57
2022/03/20 05:44:05;;;;;;;25.48;15.77;;;3.30;97.90;;;;;;4990410;28;20140;-59
2022/03/20 05:46:31;;;;;;;31.93;16.83;;;3.30;97.80;;;;;;4991077;28;20129;-58
2022/03/20 05:48:57;;;;;;;22.98;17.05;;;3.30;97.70;;;;;;4990992;28;20105;-58
2022/03/20 05:51:23;;;;;;;27.13;16.70;;;3.30;97.80;;;;;;4992279;28;20050;-56
2022/03/20 05:53:49;;;;;;;23.33;15.80;;;3.30;97.60;;;;;;5002144;28;20041;-55
2022/03/20 05:58:58;;;;;;;28.15;17.00;;;3.30;97.50;;;;;;4991651;28;20282;-58
2022/03/20 06:01:24;;;;;;;24.30;15.13;;;3.40;97.50;;;;;;4989835;28;20034;-57
2022/03/20 06:03:50;;;;;;;25.97;16.40;;;3.40;97.20;;;;;;4997339;28;20048;-59
2022/03/20 06:06:16;;;;;;;25.80;15.43;;;3.40;97.30;;;;;;5009821;28;20042;-58
2022/03/20 06:08:41;;;;;;;24.90;15.38;;;3.50;97.20;;;;;;5006979;28;20038;-57
2022/03/20 06:11:07;;;;;;;24.67;16.57;;;3.60;97.00;;;;;;4990641;28;20050;-57
2022/03/20 06:13:35;;;;;;;23.90;15.00;;;3.60;96.90;;;;;;4990963;28;20045;-59
2022/03/20 06:16:01;;;;;;;24.48;15.88;;;3.70;96.60;;;;;;4989593;28;20538;-58
2022/03/20 06:18:27;;;;;;;25.10;17.33;;;3.80;96.40;;;;;;5009696;28;20041;-56
2022/03/20 06:20:54;;;;;;;26.48;16.90;;;3.90;96.20;;;;;;4999330;28;20038;-58
2022/03/20 06:23:19;;;;;;;29.15;17.02;;;4.00;95.80;;;;;;4995056;28;20419;-59
2022/03/20 06:25:45;;;;;;;24.05;16.83;;;4.10;95.70;;;;;;5003708;28;20125;-56
2022/03/20 06:28:11;;;;;;;25.60;16.57;;;4.20;95.20;;;;;;5013033;28;20041;-57
2022/03/20 06:30:36;;;;;;;25.20;15.70;;;4.20;95.00;;;;;;5010631;28;20363;-56
2022/03/20 06:33:02;;;;;;;24.77;17.07;;;4.30;94.80;;;;;;5011434;28;20053;-56
2022/03/20 06:35:28;;;;;;;24.75;17.05;;;4.50;94.40;;;;;;5012384;28;20269;-56
2022/03/20 06:37:54;;;;;;;27.17;17.02;;;4.50;94.20;;;;;;5010182;28;20045;-55
2022/03/20 06:40:20;;;;;;;27.75;17.67;;;4.50;93.60;;;;;;4992343;28;20042;-56
2022/03/20 06:42:47;;;;;;;25.85;16.13;;;4.40;93.60;;;;;;4995076;28;20077;-56
2022/03/20 06:45:13;;;;;;;24.98;16.20;;;4.50;94.00;;;;;;5008492;28;20412;-56
2022/03/20 06:47:41;;;;;;;24.08;15.48;;;4.60;93.60;;;;;;4995675;28;20038;-55
2022/03/20 06:50:09;;;;;;;22.45;15.38;;;4.70;93.40;;;;;;4999252;28;20476;-53
2022/03/20 06:52:35;;;;;;;26.50;15.88;;;4.80;93.20;;;;;;5003854;28;20038;-57
2022/03/20 06:55:02;;;;;;;;;;;4.80;93.00;;;;;;4994714;28;20045;-56
2022/03/20 06:57:28;;;;;;;23.30;16.67;;;4.90;92.50;;;;;;5006320;28;19933;-57
2022/03/20 06:59:56;;;;;;;22.42;15.43;;;4.90;92.30;;;;;;5011962;28;20467;-57
2022/03/20 07:02:21;;;;;;;25.10;16.60;;;5.00;92.40;;;;;;5010546;28;20049;-57
2022/03/20 07:04:48;;;;;;;23.80;17.27;;;5.00;92.20;;;;;;5007180;28;20034;-57
2022/03/20 07:07:23;;;;;;;25.25;17.10;;;5.00;92.20;;;;;;4999837;28;20096;-55
2022/03/20 07:09:49;;;;;;;23.98;16.77;;;5.00;91.80;;;;;;5012344;28;20359;-53
2022/03/20 07:12:15;;;;;;;22.48;16.38;;;5.10;91.40;;;;;;5003457;28;20046;-56
2022/03/20 07:14:44;;;;;;;34.70;17.23;;;5.10;91.20;;;;;;4993415;28;20389;-55
2022/03/20 07:17:12;;;;;;;27.15;17.10;;;5.10;90.90;;;;;;4992695;28;20033;-55
2022/03/20 07:19:40;;;;;;;29.23;17.88;;;5.00;90.90;;;;;;5009517;28;20096;-57
2022/03/20 07:22:06;;;;;;;24.13;15.77;;;5.00;90.90;;;;;;5011909;28;20045;-55
2022/03/20 07:24:40;;;;;;;27.30;17.42;;;4.90;90.60;;;;;;5001937;28;20053;-57
2022/03/20 07:29:50;;;;;;;32.38;17.92;;;4.70;90.90;;;;;;4991918;28;20054;-54
2022/03/20 07:32:16;;;;;;;24.43;15.47;;;4.70;90.80;;;;;;5002326;28;20038;-57
2022/03/20 07:34:44;;;;;;;26.37;18.50;;;4.70;91.00;;;;;;4999806;28;20037;-59
2022/03/20 07:37:16;;;;;;;24.33;15.90;;;4.70;90.80;;;;;;5004717;28;20053;-55
2022/03/20 07:39:42;;;;;;;25.63;16.55;;;4.70;90.70;;;;;;4990975;28;20045;-56
2022/03/20 07:42:08;;;;;;;28.77;18.83;;;4.80;90.80;;;;;;5001015;28;20061;-57
2022/03/20 07:44:36;;;;;;;26.70;17.17;;;4.90;90.70;;;;;;5009332;28;20048;-58
2022/03/20 07:47:02;;;;;;;26.73;17.45;;;5.00;90.90;;;;;;5000299;28;20050;-60
2022/03/20 07:49:28;;;;;;;29.45;18.52;;;5.10;90.60;;;;;;5008711;28;20550;-56
2022/03/20 07:51:57;;;;;;;25.02;17.85;;;5.30;91.20;;;;;;4997652;28;20038;-57
2022/03/20 07:54:26;;;;;;;27.33;15.70;;;5.50;90.90;;;;;;4992936;28;20050;-59
2022/03/20 07:56:51;;;;;;;24.63;17.38;;;5.60;90.20;;;;;;4991800;28;20030;-57
2022/03/20 07:59:17;;;;;;;23.87;16.97;;;5.70;88.60;;;;;;5002428;28;20468;-57
2022/03/20 08:01:43;;;;;;;28.43;18.37;;;5.70;88.20;;;;;;4996148;28;20535;-56
2022/03/20 08:04:09;;;;;;;31.02;18.38;;;5.70;87.20;;;;;;5011123;28;20041;-56
2022/03/20 08:06:34;;;;;;;24.70;16.77;;;5.70;86.30;;;;;;5001471;28;20057;-57
2022/03/20 08:09:00;;;;;;;24.42;18.45;;;5.80;85.90;;;;;;5004433;28;20491;-56
2022/03/20 08:11:27;;;;;;;27.53;16.47;;;5.80;85.40;;;;;;4993230;28;20465;-56
2022/03/20 08:13:53;;;;;;;32.08;18.27;;;5.80;85.20;;;;;;5011218;28;20499;-57
2022/03/20 08:16:21;;;;;;;26.80;17.37;;;5.80;84.80;;;;;;5010215;28;20049;-56
2022/03/20 08:18:48;;;;;;;28.70;17.40;;;5.70;83.80;;;;;;4991416;28;20115;-57
2022/03/20 08:21:14;;;;;;;;;;;5.60;84.50;;;;;;4995888;28;20053;-57
2022/03/20 08:23:40;;;;;;;27.85;18.75;;;5.60;83.40;;;;;;5006995;28;19917;-56
2022/03/20 08:26:08;;;;;;;;;;;5.60;84.40;;;;;;5009124;28;20179;-55
2022/03/20 08:28:35;;;;;;;28.08;19.27;;;5.70;84.30;;;;;;5007712;28;20024;-55
2022/03/20 08:31:01;;;;;;;28.75;18.67;;;5.80;84.60;;;;;;4993560;28;20745;-57
2022/03/20 08:33:27;;;;;;;32.87;17.53;;;5.90;84.20;;;;;;5001188;28;20181;-56
2022/03/20 08:35:52;;;;;;;27.17;18.58;;;6.10;83.70;;;;;;4990217;28;20049;-57
2022/03/20 08:38:18;;;;;;;23.80;17.93;;;6.20;81.80;;;;;;4990568;28;20443;-56
2022/03/20 08:40:43;;;;;;;25.77;17.27;;;6.30;81.10;;;;;;4990671;28;20042;-57
2022/03/20 08:43:15;;;;;;;26.70;18.13;;;6.40;81.40;;;;;;4989830;28;20145;-58
2022/03/20 08:45:41;;;;;;;26.83;19.05;;;6.50;80.70;;;;;;4991343;28;20447;-57
2022/03/20 08:48:07;;;;;;;26.30;17.58;;;6.50;79.70;;;;;;4990127;28;20511;-57
2022/03/20 08:50:33;;;;;;;;;;;6.70;80.70;;;;;;4992208;28;20048;-56
2022/03/20 08:52:58;;;;;;;25.10;18.63;;;6.70;79.50;;;;;;5001446;28;19925;-57
2022/03/20 08:55:24;;;;;;;29.10;18.50;;;6.80;79.60;;;;;;5009653;28;20046;-58
2022/03/20 08:57:54;;;;;;;25.57;17.73;;;6.90;77.70;;;;;;5000678;28;20109;-57
2022/03/20 09:00:23;;;;;;;32.85;19.17;;;6.90;78.60;;;;;;4991864;28;20081;-57
2022/03/20 09:02:50;;;;;;;26.75;18.13;;;7.00;78.50;;;;;;4990209;28;20072;-57
2022/03/20 09:05:16;;;;;;;27.80;18.67;;;7.10;77.10;;;;;;5006383;28;20046;-57
2022/03/20 09:07:43;;;;;;;32.50;19.63;;;7.20;76.90;;;;;;5000909;28;20038;-56
2022/03/20 09:10:10;;;;;;;33.17;20.40;;;7.20;76.80;;;;;;4999141;28;20034;-58
2022/03/20 09:12:37;;;;;;;;;;;7.30;74.70;;;;;;4989807;28;20050;-57
2022/03/20 09:15:04;;;;;;;;;;;7.30;75.60;;;;;;5003721;28;20020;-57
2022/03/20 09:20:15;;;;;;;26.65;19.45;;;7.50;75.70;;;;;;5005997;28;20034;-57
2022/03/20 09:22:41;;;;;;;28.48;19.20;;;7.60;74.80;;;;;;5004325;28;20065;-58
2022/03/20 09:25:07;;;;;;;29.87;19.20;;;7.60;74.90;;;;;;5009927;28;20462;-58
2022/03/20 09:27:34;;;;;;;28.77;19.00;;;7.70;73.40;;;;;;5009258;28;20045;-57
2022/03/20 09:30:00;;;;;;;26.20;20.05;;;7.80;74.20;;;;;;5001331;28;20038;-58
2022/03/20 09:32:26;;;;;;;30.90;19.08;;;7.90;75.10;;;;;;4990625;28;20134;-57
2022/03/20 09:34:52;;;;;;;31.88;21.10;;;8.00;73.10;;;;;;4994308;28;20118;-56
2022/03/20 09:37:18;;;;;;;36.00;21.47;;;8.10;72.30;;;;;;4995275;28;20117;-58
2022/03/20 09:39:43;;;;;;;37.63;21.25;;;8.10;71.00;;;;;;5008155;28;20034;-57
2022/03/20 09:42:09;;;;;;;28.80;19.80;;;8.10;72.50;;;;;;4996387;28;20042;-57
2022/03/20 09:44:38;;;;;;;30.90;20.27;;;8.20;72.60;;;;;;4989837;28;20038;-57
2022/03/20 09:47:17;;;;;;;32.13;19.90;;;8.30;72.20;;;;;;5001004;28;20068;-56
2022/03/20 09:49:44;;;;;;;28.60;19.55;;;8.30;69.80;;;;;;5009137;28;20506;-57
2022/03/20 09:52:10;;;;;;;28.60;21.05;;;8.40;70.60;;;;;;5005993;28;20042;-57
2022/03/20 09:54:36;;;;;;;29.15;21.25;;;8.40;70.70;;;;;;5011976;28;20419;-57
2022/03/20 09:57:06;;;;;;;29.73;20.73;;;8.50;69.60;;;;;;5005363;28;20108;-58
2022/03/20 09:59:34;;;;;;;29.77;22.20;;;8.60;70.80;;;;;;5012437;28;20430;-58
2022/03/20 10:02:11;;;;;;;31.25;20.42;;;8.70;70.60;;;;;;5002917;28;20049;-59
2022/03/20 10:05:00;;;;;;;34.80;21.55;;;8.80;69.80;;;;;;5002403;28;20035;-57
2022/03/20 10:07:28;;;;;;;28.63;20.25;;;8.90;69.50;;;;;;5009973;28;20398;-58
2022/03/20 10:10:13;;;;;;;26.08;18.92;;;9.00;70.00;;;;;;4995108;28;20474;-58
2022/03/20 10:12:51;;;;;;;25.52;19.55;;;9.10;68.00;;;;;;5008232;28;20546;-59
2022/03/20 10:15:36;;;;;;;30.80;21.58;;;9.00;67.50;;;;;;5005342;28;20066;-58
2022/03/20 10:18:15;;;;;;;30.48;20.77;;;9.10;67.10;;;;;;5001467;28;20682;-57
2022/03/20 10:20:44;;;;;;;32.75;19.65;;;9.20;68.30;;;;;;4993964;28;20462;-57
2022/03/20 10:23:36;;;;;;;28.40;20.02;;;9.20;67.70;;;;;;4993937;28;20038;-58
2022/03/20 10:26:10;;;;;;;28.27;21.08;;;9.30;67.50;;;;;;5004682;28;20740;-59
2022/03/20 10:28:40;;;;;;;28.70;20.27;;;9.40;68.00;;;;;;5011563;28;20049;-59
2022/03/20 10:31:12;;;;;;;30.42;21.35;;;9.40;66.50;;;;;;5012311;28;20041;-59
2022/03/20 10:33:40;;;;;;;29.10;21.85;;;9.50;67.40;;;;;;5011572;28;20034;-59
2022/03/20 10:36:21;;;;;;;29.92;21.48;;;9.50;67.40;;;;;;5011653;28;20105;-59
2022/03/20 10:38:48;;;;;;;28.88;20.63;;;9.60;65.80;;;;;;5009550;28;20041;-59
2022/03/20 10:41:25;;;;;;;29.02;21.13;;;9.60;66.20;;;;;;4996040;28;20037;-59
2022/03/20 10:43:52;;;;;;;147.85;31.05;;;9.70;65.30;;;;;;5006496;28;20081;-59
2022/03/20 10:46:22;;;;;;;35.20;21.45;;;9.70;65.20;;;;;;4992348;28;20049;-59
2022/03/20 10:48:52;;;;;;;29.15;20.05;;;9.80;65.70;;;;;;4995172;28;20515;-57
2022/03/20 10:51:41;;;;;;;27.65;20.63;;;9.90;65.20;;;;;;4992593;28;20088;-58
2022/03/20 10:54:14;;;;;;;33.03;22.40;;;10.00;65.60;;;;;;4995914;28;20081;-59
2022/03/20 10:56:52;;;;;;;81.05;28.08;;;10.00;65.70;;;;;;5010535;28;20483;-59
2022/03/20 10:59:17;;;;;;;32.95;23.17;;;9.90;64.30;;;;;;5004639;28;20542;-56
2022/03/20 11:01:44;;;;;;;103.27;25.63;;;9.80;65.60;;;;;;5002214;28;20061;-59
2022/03/20 11:04:11;;;;;;;34.05;22.48;;;9.80;64.40;;;;;;5011866;28;20034;-58
2022/03/20 11:06:37;;;;;;;34.50;22.88;;;9.80;63.60;;;;;;5009830;28;20302;-61
2022/03/20 11:09:06;;;;;;;28.55;22.20;;;9.80;62.50;;;;;;5011005;28;20108;-59
2022/03/20 11:11:34;;;;;;;30.20;21.92;;;9.90;64.90;;;;;;4992961;28;20065;-58
2022/03/20 11:14:03;;;;;;;65.40;24.10;;;10.00;65.50;;;;;;5000713;28;20510;-58
2022/03/20 11:16:33;;;;;;;67.97;24.10;;;10.10;64.50;;;;;;5012066;28;20394;-62
2022/03/20 11:18:59;;;;;;;30.85;21.42;;;10.30;66.60;;;;;;5000784;28;20096;-59
2022/03/20 11:21:27;;;;;;;28.58;22.13;;;10.50;65.10;;;;;;4998983;28;20419;-59
2022/03/20 11:23:55;;;;;;;28.83;21.48;;;10.60;63.80;;;;;;4992677;28;20038;-58
2022/03/20 11:26:24;;;;;;;145.57;34.05;;;10.70;63.40;;;;;;5010355;28;20034;-58
2022/03/20 11:28:55;;;;;;;31.30;23.42;;;10.50;62.20;;;;;;5009785;28;20503;-58
2022/03/20 11:31:21;;;;;;;30.67;20.95;;;10.50;62.90;;;;;;5008778;28;20507;-59
2022/03/20 11:33:49;;;;;;;54.35;26.15;;;10.50;63.50;;;;;;5002653;28;20038;-60
2022/03/20 11:36:14;;;;;;;29.10;20.83;;;10.50;63.30;;;;;;4993350;28;20423;-59
2022/03/20 11:38:41;;;;;;;35.63;22.90;;;10.50;62.50;;;;;;4993733;28;20554;-58
2022/03/20 11:41:09;;;;;;;;;;;10.60;62.50;;;;;;4993427;28;20034;-59
2022/03/20 11:43:37;;;;;;;40.08;20.80;;;10.60;62.30;;;;;;4999561;28;20271;-59
2022/03/20 11:46:22;;;;;;;30.88;22.73;;;10.70;61.60;;;;;;5008970;28;20107;-59
2022/03/20 11:49:12;;;;;;;30.67;22.17;;;10.70;61.40;;;;;;5007900;28;20084;-59
2022/03/20 11:52:09;;;;;;;29.88;21.70;;;10.80;60.60;;;;;;4999020;28;20424;-59
2022/03/20 11:54:41;;;;;;;39.58;24.58;;;10.80;61.90;;;;;;5001552;28;20045;-59
2022/03/20 11:57:29;;;;;;;28.88;21.70;;;10.80;63.30;;;;;;5010718;28;20129;-59
2022/03/20 11:59:56;;;;;;;31.80;22.88;;;10.80;61.30;;;;;;5002862;28;20112;-59
2022/03/20 12:02:34;;;;;;;39.00;25.13;;;10.60;61.40;;;;;;5001789;28;20407;-59
2022/03/20 12:05:08;;;;;;;29.15;22.20;;;10.50;61.60;;;;;;5006815;28;20550;-59
2022/03/20 12:07:41;;;;;;;32.25;23.25;;;10.60;61.70;;;;;;5000132;28;20038;-59
2022/03/20 12:10:20;;;;;;;43.05;26.08;;;10.60;62.10;;;;;;5008853;28;20038;-59
2022/03/20 12:13:10;;;;;;;33.50;23.80;;;10.60;62.00;;;;;;5000282;28;20064;-59
2022/03/20 12:15:44;;;;;;;32.88;23.83;;;10.60;62.10;;;;;;4990316;28;20077;-60
2022/03/20 12:18:10;;;;;;;27.50;22.52;;;10.40;62.20;;;;;;5002081;28;20038;-59
2022/03/20 12:20:51;;;;;;;34.22;22.52;;;10.40;62.70;;;;;;5003583;28;21267;-59
2022/03/20 12:23:40;;;;;;;32.45;22.90;;;10.40;62.60;;;;;;5002550;28;20061;-58
2022/03/20 12:26:26;;;;;;;36.17;24.75;;;10.40;62.70;;;;;;5010717;28;20045;-59
2022/03/20 12:28:52;;;;;;;32.28;22.80;;;10.50;62.50;;;;;;5010105;28;20077;-59
2022/03/20 12:31:26;;;;;;;32.15;23.42;;;10.60;63.40;;;;;;5009201;28;20528;-59
2022/03/20 12:34:17;;;;;;;44.38;25.08;;;10.70;63.10;;;;;;5005638;28;20056;-60
2022/03/20 12:36:43;;;;;;;32.42;23.85;;;10.80;62.20;;;;;;5010180;28;20041;-58
2022/03/20 12:39:10;;;;;;;34.43;24.83;;;10.80;62.20;;;;;;5007876;28;20490;-59
2022/03/20 12:41:37;;;;;;;34.90;22.35;;;10.60;62.20;;;;;;5002379;28;20034;-59
2022/03/20 12:44:07;;;;;;;45.28;26.00;;;10.50;61.90;;;;;;4994921;28;20069;-59
2022/03/20 12:46:37;;;;;;;33.10;23.23;;;10.40;62.60;;;;;;5008504;28;20042;-57
2022/03/20 12:49:03;;;;;;;36.17;24.50;;;10.30;63.10;;;;;;4992637;28;20061;-59
2022/03/20 12:51:35;;;;;;;31.85;24.08;;;10.30;64.20;;;;;;4991291;28;20057;-60
2022/03/20 12:54:18;;;;;;;35.00;25.48;;;10.20;63.50;;;;;;4991779;28;20038;-59
2022/03/20 12:56:52;;;;;;;33.75;23.52;;;10.20;65.10;;;;;;4991008;28;20030;-59
2022/03/20 12:59:26;;;;;;;34.25;24.40;;;10.20;65.20;;;;;;5000080;28;20487;-59
2022/03/20 13:01:52;;;;;;;33.72;23.38;;;10.20;63.70;;;;;;5010559;28;20498;-59
2022/03/20 13:04:19;;;;;;;;;;;10.20;63.70;;;;;;5008867;28;20481;-59
2022/03/20 13:06:48;;;;;;;35.05;24.45;;;10.20;63.90;;;;;;5009052;28;19918;-59
2022/03/20 13:09:14;;;;;;;33.35;24.15;;;10.20;64.00;;;;;;5008249;28;20052;-59
2022/03/20 13:11:51;;;;;;;;;;;10.30;65.20;;;;;;4999229;28;20041;-59
2022/03/20 13:14:17;;;;;;;28.83;22.02;;;10.30;64.10;;;;;;4997396;28;20005;-59
2022/03/20 13:16:51;;;;;;;31.15;23.63;;;10.40;63.50;;;;;;5000652;28;20125;-59
2022/03/20 13:19:27;;;;;;;32.20;23.13;;;10.50;64.50;;;;;;5009119;28;20411;-59
2022/03/20 13:21:53;;;;;;;32.27;24.03;;;10.50;64.10;;;;;;5007466;28;20052;-59
2022/03/20 13:24:29;;;;;;;33.53;23.77;;;10.60;63.40;;;;;;5008245;28;20284;-59